createdAt,value
2023-06-15T00:00:32.928Z,97086.66
2023-06-15T00:02:35.727Z,97091.31
2023-06-15T00:04:38.589Z,97079.03
2023-06-15T00:06:41.406Z,97085.19
2023-06-15T00:08:44.055Z,97089.03
2023-06-15T00:10:46.742Z,97083.59
2023-06-15T00:12:49.350Z,97093.75
2023-06-15T00:14:53.469Z,97086.91
2023-06-15T00:16:56.137Z,97100.97
2023-06-15T00:18:58.909Z,97099.91
2023-06-15T00:21:01.866Z,97100.97
2023-06-15T00:23:05.189Z,97100.84
2023-06-15T00:25:08.613Z,97100.72
2023-06-15T00:27:11.841Z,97104.22
2023-06-15T00:29:16.796Z,97106.84
2023-06-15T00:31:21.338Z,97107.09
2023-06-15T00:33:24.032Z,97105.38
2023-06-15T00:35:28.741Z,97105.63
2023-06-15T00:37:31.634Z,97110.31
2023-06-15T00:39:34.301Z,97109.81
2023-06-15T00:41:43.495Z,97100.28
2023-06-15T00:43:46.179Z,97101.25
2023-06-15T00:45:48.986Z,97112.81
2023-06-15T00:47:53.723Z,97106.06
2023-06-15T00:49:56.562Z,97104.59
2023-06-15T00:51:59.294Z,97115.38
2023-06-15T00:54:03.607Z,97108.75
2023-06-15T00:56:08.142Z,97112.78
2023-06-15T00:58:11.642Z,97113.16
2023-06-15T01:00:17.020Z,97114.19
2023-06-15T01:02:19.709Z,97121.53
2023-06-15T01:04:25.721Z,97112.03
2023-06-15T01:06:33.179Z,97119.94
2023-06-15T01:08:37.475Z,97122.94
2023-06-15T01:10:40.399Z,97122.06
2023-06-15T01:12:45.553Z,97114.38
2023-06-15T01:14:48.276Z,97120.59
2023-06-15T01:16:54.739Z,97125.06
2023-06-15T01:18:58.417Z,97125.13
2023-06-15T01:21:07.474Z,97119.16
2023-06-15T01:23:20.362Z,97116.50
2023-06-15T01:25:30.668Z,97117.56
2023-06-15T01:27:37.875Z,97110.00
2023-06-15T01:29:42.448Z,97111.03
2023-06-15T01:31:45.482Z,97112.00
2023-06-15T01:33:49.591Z,97109.78
2023-06-15T01:35:52.262Z,97110.88
2023-06-15T01:37:54.910Z,97108.22
2023-06-15T01:39:57.885Z,97114.44
2023-06-15T01:42:00.712Z,97116.22
2023-06-15T01:44:05.719Z,97114.63
2023-06-15T01:46:08.800Z,97120.13
2023-06-15T01:48:12.400Z,97115.28
2023-06-15T01:50:15.726Z,97113.09
2023-06-15T01:52:18.446Z,97112.25
2023-06-15T01:54:21.229Z,97113.63
2023-06-15T01:56:25.974Z,97109.44
2023-06-15T01:58:28.778Z,97110.25
2023-06-15T02:00:32.807Z,97111.09
2023-06-15T02:02:35.870Z,97116.38
2023-06-15T02:04:38.515Z,97115.53
2023-06-15T02:06:41.173Z,97123.31
2023-06-15T02:08:43.795Z,97125.25
2023-06-15T02:10:46.534Z,97115.75
2023-06-15T02:12:49.177Z,97112.47
2023-06-15T02:14:51.985Z,97116.06
2023-06-15T02:16:57.641Z,97124.91
2023-06-15T02:19:01.335Z,97120.84
2023-06-15T02:21:04.056Z,97132.31
2023-06-15T02:23:06.663Z,97120.19
2023-06-15T02:25:09.960Z,97120.50
2023-06-15T02:27:12.625Z,97122.31
2023-06-15T02:29:15.270Z,97131.03
2023-06-15T02:31:17.917Z,97128.41
2023-06-15T02:33:21.924Z,97131.38
2023-06-15T02:35:24.554Z,97129.78
2023-06-15T02:37:27.213Z,97133.38
2023-06-15T02:39:29.837Z,97129.13
2023-06-15T02:41:32.465Z,97128.50
2023-06-15T02:43:35.134Z,97128.84
2023-06-15T02:45:38.847Z,97130.63
2023-06-15T02:47:43.447Z,97131.56
2023-06-15T02:49:47.563Z,97132.44
2023-06-15T02:51:50.208Z,97132.53
2023-06-15T02:53:53.064Z,97138.75
2023-06-15T02:55:55.674Z,97134.44
2023-06-15T02:57:58.278Z,97137.88
2023-06-15T03:00:01.106Z,97136.09
2023-06-15T03:02:05.470Z,97142.53
2023-06-15T03:04:11.162Z,97142.84
2023-06-15T03:06:16.035Z,97140.63
2023-06-15T03:08:19.776Z,97135.56
2023-06-15T03:10:22.417Z,97147.78
2023-06-15T03:12:24.998Z,97146.72
2023-06-15T03:14:27.631Z,97148.22
2023-06-15T03:16:34.048Z,97152.53
2023-06-15T03:18:37.185Z,97151.59
2023-06-15T03:20:44.907Z,97150.63
2023-06-15T03:22:49.622Z,97154.03
2023-06-15T03:24:55.937Z,97148.53
2023-06-15T03:26:59.352Z,97148.53
2023-06-15T03:29:01.940Z,97144.97
2023-06-15T03:31:06.055Z,97147.59
2023-06-15T03:33:08.832Z,97156.25
2023-06-15T03:35:13.707Z,97148.25
2023-06-15T03:37:16.353Z,97154.34
2023-06-15T03:39:20.484Z,97149.91
2023-06-15T03:41:23.082Z,97151.59
2023-06-15T03:43:25.700Z,97150.66
2023-06-15T03:45:28.345Z,97150.56
2023-06-15T03:47:32.895Z,97156.56
2023-06-15T03:49:35.609Z,97161.09
2023-06-15T03:51:38.475Z,97162.78
2023-06-15T03:53:43.715Z,97174.38
2023-06-15T03:55:47.783Z,97170.03
2023-06-15T03:57:50.462Z,97173.75
2023-06-15T03:59:53.659Z,97172.91
2023-06-15T04:01:56.603Z,97174.72
2023-06-15T04:03:59.242Z,97178.91
2023-06-15T04:06:02.200Z,97180.69
2023-06-15T04:08:05.097Z,97188.50
2023-06-15T04:10:12.041Z,97185.03
2023-06-15T04:12:16.079Z,97188.59
2023-06-15T04:14:19.315Z,97194.81
2023-06-15T04:16:22.041Z,97195.03
2023-06-15T04:18:25.385Z,97199.56
2023-06-15T04:20:29.963Z,97194.28
2023-06-15T04:22:32.604Z,97203.13
2023-06-15T04:24:36.081Z,97198.81
2023-06-15T04:26:39.042Z,97197.16
2023-06-15T04:28:46.546Z,97202.41
2023-06-15T04:30:56.201Z,97204.19
2023-06-15T04:33:01.217Z,97205.97
2023-06-15T04:35:05.094Z,97205.16
2023-06-15T04:37:08.514Z,97206.94
2023-06-15T04:39:11.160Z,97208.72
2023-06-15T04:41:15.900Z,97208.63
2023-06-15T04:43:21.700Z,97211.25
2023-06-15T04:45:25.847Z,97218.34
2023-06-15T04:47:28.502Z,97219.25
2023-06-15T04:49:31.746Z,97220.97
2023-06-15T04:51:34.527Z,97214.09
2023-06-15T04:53:37.220Z,97225.50
2023-06-15T04:55:40.030Z,97228.13
2023-06-15T04:57:42.628Z,97223.69
2023-06-15T04:59:45.312Z,97228.94
2023-06-15T05:01:49.309Z,97229.06
2023-06-15T05:03:52.621Z,97223.88
2023-06-15T05:05:55.407Z,97225.66
2023-06-15T05:07:58.081Z,97223.88
2023-06-15T05:10:00.773Z,97224.75
2023-06-15T05:12:05.040Z,97231.69
2023-06-15T05:14:10.293Z,97229.91
2023-06-15T05:16:12.934Z,97230.75
2023-06-15T05:18:16.937Z,97224.53
2023-06-15T05:20:19.537Z,97228.88
2023-06-15T05:22:22.222Z,97234.03
2023-06-15T05:24:24.854Z,97225.06
2023-06-15T05:26:30.059Z,97231.19
2023-06-15T05:28:33.143Z,97228.34
2023-06-15T05:30:35.762Z,97230.06
2023-06-15T05:32:40.089Z,97232.69
2023-06-15T05:34:44.135Z,97234.47
2023-06-15T05:36:56.445Z,97231.72
2023-06-15T05:39:00.292Z,97231.63
2023-06-15T05:41:02.899Z,97234.25
2023-06-15T05:43:05.625Z,97233.41
2023-06-15T05:45:08.998Z,97243.13
2023-06-15T05:47:13.598Z,97231.50
2023-06-15T05:49:16.850Z,97244.47
2023-06-15T05:51:20.923Z,97237.97
2023-06-15T05:53:23.717Z,97249.34
2023-06-15T05:55:27.309Z,97245.75
2023-06-15T05:57:30.428Z,97247.47
2023-06-15T05:59:34.346Z,97249.16
2023-06-15T06:01:37.352Z,97254.41
2023-06-15T06:03:39.962Z,97250.84
2023-06-15T06:05:42.584Z,97249.78
2023-06-15T06:07:46.940Z,97253.06
2023-06-15T06:09:49.572Z,97246.75
2023-06-15T06:11:52.257Z,97244.75
2023-06-15T06:13:54.917Z,97247.81
2023-06-15T06:15:57.601Z,97252.75
2023-06-15T06:18:08.449Z,97255.19
2023-06-15T06:20:13.043Z,97254.16
2023-06-15T06:22:15.714Z,97258.56
2023-06-15T06:24:23.323Z,97253.09
2023-06-15T06:26:27.455Z,97258.56
2023-06-15T06:28:30.075Z,97260.06
2023-06-15T06:30:33.372Z,97259.22
2023-06-15T06:32:39.142Z,97253.72
2023-06-15T06:34:42.657Z,97253.41
2023-06-15T06:36:45.300Z,97258.47
2023-06-15T06:39:01.101Z,97257.44
2023-06-15T06:41:09.142Z,97259.00
2023-06-15T06:43:11.767Z,97252.56
2023-06-15T06:45:17.620Z,97254.06
2023-06-15T06:47:20.542Z,97258.41
2023-06-15T06:49:25.953Z,97258.19
2023-06-15T06:51:28.611Z,97257.88
2023-06-15T06:53:31.298Z,97262.84
2023-06-15T06:55:33.944Z,97270.53
2023-06-15T06:57:38.506Z,97267.66
2023-06-15T06:59:44.235Z,97271.03
2023-06-15T07:01:47.210Z,97272.00
2023-06-15T07:03:49.970Z,97269.25
2023-06-15T07:05:52.796Z,97269.03
2023-06-15T07:07:55.467Z,97268.81
2023-06-15T07:09:58.119Z,97269.44
2023-06-15T07:12:01.458Z,97272.09
2023-06-15T07:14:05.529Z,97271.25
2023-06-15T07:16:08.443Z,97277.28
2023-06-15T07:18:15.236Z,97273.44
2023-06-15T07:20:17.962Z,97266.38
2023-06-15T07:22:21.040Z,97263.63
2023-06-15T07:24:23.716Z,97263.31
2023-06-15T07:26:26.352Z,97267.41
2023-06-15T07:28:28.961Z,97266.38
2023-06-15T07:30:32.944Z,97266.16
2023-06-15T07:32:35.835Z,97260.28
2023-06-15T07:34:38.598Z,97257.66
2023-06-15T07:36:41.276Z,97268.22
2023-06-15T07:38:44.202Z,97270.66
2023-06-15T07:40:47.179Z,97265.16
2023-06-15T07:42:49.839Z,97262.28
2023-06-15T07:44:52.443Z,97262.06
2023-06-15T07:46:56.466Z,97255.72
2023-06-15T07:48:59.129Z,97262.47
2023-06-15T07:51:01.863Z,97261.38
2023-06-15T07:53:04.515Z,97267.28
2023-06-15T07:55:08.175Z,97264.34
2023-06-15T07:57:11.089Z,97268.47
2023-06-15T07:59:13.975Z,97260.41
2023-06-15T08:01:16.571Z,97259.34
2023-06-15T08:03:20.743Z,97252.06
2023-06-15T08:05:23.512Z,97252.66
2023-06-15T08:07:26.152Z,97256.88
2023-06-15T08:09:29.159Z,97255.81
2023-06-15T08:11:32.913Z,97258.34
2023-06-15T08:13:35.618Z,97252.69
2023-06-15T08:15:38.239Z,97254.41
2023-06-15T08:17:40.915Z,97253.44
2023-06-15T08:19:44.901Z,97255.84
2023-06-15T08:21:47.519Z,97251.16
2023-06-15T08:23:50.222Z,97247.47
2023-06-15T08:25:53.888Z,97248.94
2023-06-15T08:27:56.510Z,97250.38
2023-06-15T08:29:59.876Z,97243.91
2023-06-15T08:32:02.534Z,97245.38
2023-06-15T08:34:05.174Z,97249.44
2023-06-15T08:36:09.355Z,97249.13
2023-06-15T08:38:12.014Z,97245.38
2023-06-15T08:40:15.060Z,97249.38
2023-06-15T08:42:19.435Z,97247.19
2023-06-15T08:44:22.969Z,97249.59
2023-06-15T08:46:25.889Z,97251.19
2023-06-15T08:48:29.962Z,97252.63
2023-06-15T08:50:32.988Z,97251.56
2023-06-15T08:52:39.259Z,97253.13
2023-06-15T08:54:43.330Z,97260.00
2023-06-15T08:56:46.017Z,97256.31
2023-06-15T08:58:50.834Z,97253.41
2023-06-15T09:00:57.925Z,97249.56
2023-06-15T09:03:02.594Z,97249.31
2023-06-15T09:05:05.619Z,97242.00
2023-06-15T09:07:09.102Z,97246.19
2023-06-15T09:09:13.340Z,97238.84
2023-06-15T09:11:16.591Z,97245.72
2023-06-15T09:13:19.246Z,97237.66
2023-06-15T09:15:23.039Z,97239.09
2023-06-15T09:17:29.506Z,97239.81
2023-06-15T09:19:38.629Z,97239.59
2023-06-15T09:21:42.942Z,97239.22
2023-06-15T09:23:47.367Z,97237.41
2023-06-15T09:25:53.979Z,97239.81
2023-06-15T09:27:58.012Z,97243.91
2023-06-15T09:30:04.853Z,97234.88
2023-06-15T09:32:08.063Z,97240.88
2023-06-15T09:34:12.133Z,97241.47
2023-06-15T09:36:14.799Z,97238.47
2023-06-15T09:38:17.857Z,97234.59
2023-06-15T09:40:20.963Z,97244.81
2023-06-15T09:42:28.551Z,97238.44
2023-06-15T09:44:31.224Z,97237.25
2023-06-15T09:46:33.873Z,97243.16
2023-06-15T09:48:39.248Z,97232.88
2023-06-15T09:50:41.892Z,97246.88
2023-06-15T09:52:45.485Z,97241.34
2023-06-15T09:54:49.608Z,97241.06
2023-06-15T09:56:53.767Z,97241.78
2023-06-15T09:59:00.278Z,97237.22
2023-06-15T10:01:06.883Z,97238.63
2023-06-15T10:03:13.272Z,97252.34
2023-06-15T10:05:17.809Z,97251.41
2023-06-15T10:07:22.495Z,97240.66
2023-06-15T10:09:29.900Z,97245.72
2023-06-15T10:11:33.840Z,97243.78
2023-06-15T10:13:52.435Z,97253.16
2023-06-15T10:15:59.181Z,97250.97
2023-06-15T10:18:06.883Z,97248.06
2023-06-15T10:20:13.257Z,97251.19
2023-06-15T10:22:19.203Z,97244.66
2023-06-15T10:24:24.997Z,97241.75
2023-06-15T10:26:27.949Z,97238.09
2023-06-15T10:28:34.281Z,97237.03
2023-06-15T10:30:43.508Z,97245.44
2023-06-15T10:32:55.009Z,97243.38
2023-06-15T10:35:04.471Z,97233.47
2023-06-15T10:37:12.114Z,97229.59
2023-06-15T10:39:19.114Z,97224.16
2023-06-15T10:41:21.971Z,97214.00
2023-06-15T10:43:28.403Z,97221.56
2023-06-15T10:45:32.571Z,97219.53
2023-06-15T10:47:35.601Z,97220.81
2023-06-15T10:49:50.061Z,97225.00
2023-06-15T10:51:53.316Z,97224.50
2023-06-15T10:53:57.099Z,97225.22
2023-06-15T10:56:00.858Z,97217.97
2023-06-15T10:58:16.288Z,97224.94
2023-06-15T11:00:26.386Z,97225.50
2023-06-15T11:02:53.439Z,97229.47
2023-06-15T11:05:02.783Z,97230.63
2023-06-15T11:07:05.489Z,97226.56
2023-06-15T11:09:14.036Z,97220.88
2023-06-15T11:11:17.367Z,97228.28
2023-06-15T11:13:26.828Z,97221.03
2023-06-15T11:15:33.437Z,97217.16
2023-06-15T11:17:58.594Z,97217.72
2023-06-15T11:20:08.586Z,97219.09
2023-06-15T11:22:13.257Z,97223.63
2023-06-15T11:24:17.322Z,97222.00
2023-06-15T11:26:20.137Z,97219.75
2023-06-15T11:28:35.977Z,97214.75
2023-06-15T11:30:41.201Z,97214.75
2023-06-15T11:32:46.079Z,97220.50
2023-06-15T11:34:48.695Z,97216.44
2023-06-15T11:36:52.612Z,97212.41
2023-06-15T11:38:55.390Z,97216.88
2023-06-15T11:41:02.276Z,97213.94
2023-06-15T11:43:06.149Z,97216.22
2023-06-15T11:45:21.296Z,97214.94
2023-06-15T11:47:23.941Z,97208.66
2023-06-15T11:49:27.011Z,97199.69
2023-06-15T11:51:29.718Z,97204.00
2023-06-15T11:53:34.945Z,97209.06
2023-06-15T11:55:44.044Z,97202.22
2023-06-15T11:57:46.626Z,97205.00
2023-06-15T11:59:49.326Z,97206.69
2023-06-15T12:01:52.926Z,97202.09
2023-06-15T12:04:03.598Z,97204.16
2023-06-15T12:06:08.904Z,97203.31
2023-06-15T12:08:12.675Z,97208.88
2023-06-15T12:10:19.348Z,97205.94
2023-06-15T12:12:31.960Z,97205.69
2023-06-15T12:14:34.594Z,97200.34
2023-06-15T12:16:37.913Z,97193.03
2023-06-15T12:18:41.029Z,97202.72
2023-06-15T12:20:43.821Z,97195.69
2023-06-15T12:22:49.123Z,97191.59
2023-06-15T12:24:51.831Z,97195.94
2023-06-15T12:26:58.819Z,97198.84
2023-06-15T12:29:02.914Z,97191.97
2023-06-15T12:31:12.314Z,97193.50
2023-06-15T12:33:30.258Z,97194.91
2023-06-15T12:35:38.601Z,97186.63
2023-06-15T12:37:50.681Z,97189.88
2023-06-15T12:39:55.314Z,97185.09
2023-06-15T12:42:04.018Z,97185.56
2023-06-15T12:44:07.587Z,97180.88
2023-06-15T12:46:10.560Z,97177.97
2023-06-15T12:48:13.269Z,97183.81
2023-06-15T12:50:16.073Z,97175.69
2023-06-15T12:52:19.384Z,97184.69
2023-06-15T12:54:21.990Z,97182.13
2023-06-15T12:56:24.619Z,97185.38
2023-06-15T12:58:28.616Z,97173.44
2023-06-15T13:00:32.030Z,97175.22
2023-06-15T13:02:35.189Z,97176.34
2023-06-15T13:04:39.334Z,97169.09
2023-06-15T13:06:42.175Z,97181.84
2023-06-15T13:08:45.499Z,97171.47
2023-06-15T13:10:48.227Z,97169.47
2023-06-15T13:12:51.013Z,97173.66
2023-06-15T13:14:55.471Z,97176.81
2023-06-15T13:16:58.137Z,97175.72
2023-06-15T13:19:00.832Z,97180.75
2023-06-15T13:21:03.576Z,97175.69
2023-06-15T13:23:06.169Z,97183.97
2023-06-15T13:25:10.357Z,97173.75
2023-06-15T13:27:13.213Z,97178.56
2023-06-15T13:29:15.855Z,97182.53
2023-06-15T13:31:19.896Z,97182.22
2023-06-15T13:33:22.653Z,97183.25
2023-06-15T13:35:25.298Z,97185.34
2023-06-15T13:37:28.079Z,97178.06
2023-06-15T13:39:30.735Z,97174.53
2023-06-15T13:41:33.332Z,97172.41
2023-06-15T13:43:35.952Z,97169.78
2023-06-15T13:45:38.590Z,97176.69
2023-06-15T13:47:43.703Z,97186.50
2023-06-15T13:49:46.570Z,97172.13
2023-06-15T13:51:49.219Z,97168.47
2023-06-15T13:53:51.843Z,97168.13
2023-06-15T13:55:54.461Z,97168.66
2023-06-15T13:57:57.226Z,97159.44
2023-06-15T14:00:00.055Z,97164.81
2023-06-15T14:02:03.370Z,97172.13
2023-06-15T14:04:08.065Z,97174.00
2023-06-15T14:06:10.772Z,97167.44
2023-06-15T14:08:13.491Z,97171.41
2023-06-15T14:10:19.244Z,97170.94
2023-06-15T14:12:22.239Z,97167.41
2023-06-15T14:14:25.028Z,97168.22
2023-06-15T14:16:27.751Z,97165.03
2023-06-15T14:18:30.363Z,97164.31
2023-06-15T14:20:34.332Z,97163.63
2023-06-15T14:22:36.985Z,97162.34
2023-06-15T14:24:41.560Z,97155.47
2023-06-15T14:26:44.288Z,97154.84
2023-06-15T14:28:46.924Z,97164.50
2023-06-15T14:30:49.583Z,97159.53
2023-06-15T14:32:52.969Z,97159.53
2023-06-15T14:36:59.096Z,97162.69
2023-06-15T14:39:02.873Z,97154.53
2023-06-15T14:41:05.948Z,97151.97
2023-06-15T14:43:08.590Z,97150.78
2023-06-15T14:45:12.136Z,97153.28
2023-06-15T14:47:14.871Z,97150.38
2023-06-15T14:49:17.500Z,97152.50
2023-06-15T14:51:20.384Z,97146.41
2023-06-15T14:53:24.378Z,97149.03
2023-06-15T14:55:27.035Z,97152.84
2023-06-15T14:57:29.935Z,97155.75
2023-06-15T14:59:32.539Z,97157.06
2023-06-15T15:01:36.420Z,97152.16
2023-06-15T15:03:40.037Z,97152.44
2023-06-15T15:05:42.738Z,97150.78
2023-06-15T15:07:45.528Z,97144.94
2023-06-15T15:09:49.631Z,97145.31
2023-06-15T15:11:52.384Z,97147.44
2023-06-15T15:13:56.374Z,97140.13
2023-06-15T15:15:59.007Z,97148.56
2023-06-15T15:18:01.691Z,97146.72
2023-06-15T15:20:05.424Z,97144.31
2023-06-15T15:22:08.068Z,97141.00
2023-06-15T15:24:11.073Z,97147.41
2023-06-15T15:26:15.140Z,97153.81
2023-06-15T15:28:17.839Z,97139.72
2023-06-15T15:30:22.670Z,97141.88
2023-06-15T15:32:25.300Z,97152.03
2023-06-15T15:34:27.976Z,97147.34
2023-06-15T15:36:30.731Z,97149.47
2023-06-15T15:38:33.339Z,97144.47
2023-06-15T15:40:36.374Z,97147.34
2023-06-15T15:42:40.338Z,97140.13
2023-06-15T15:44:42.957Z,97152.25
2023-06-15T15:46:45.612Z,97149.34
2023-06-15T15:48:48.631Z,97146.03
2023-06-15T15:50:51.276Z,97149.69
2023-06-15T15:52:53.918Z,97153.19
2023-06-15T15:54:56.549Z,97148.59
2023-06-15T15:56:59.181Z,97147.59
2023-06-15T15:59:03.228Z,97137.59
2023-06-15T16:01:05.872Z,97140.09
2023-06-15T16:03:08.540Z,97143.06
2023-06-15T16:05:11.530Z,97136.88
2023-06-15T16:07:14.163Z,97139.44
2023-06-15T16:09:16.760Z,97134.91
2023-06-15T16:11:19.389Z,97144.16
2023-06-15T16:13:22.054Z,97140.28
2023-06-15T16:15:26.214Z,97141.94
2023-06-15T16:17:28.872Z,97148.25
2023-06-15T16:19:31.578Z,97148.44
2023-06-15T16:21:34.198Z,97146.78
2023-06-15T16:23:36.799Z,97141.75
2023-06-15T16:25:39.388Z,97148.97
2023-06-15T16:27:42.038Z,97146.75
2023-06-15T16:29:44.641Z,97140.72
2023-06-15T16:31:49.857Z,97148.97
2023-06-15T16:33:52.602Z,97141.38
2023-06-15T16:35:55.375Z,97148.34
2023-06-15T16:37:58.010Z,97144.63
2023-06-15T16:40:02.763Z,97151.47
2023-06-15T16:42:07.270Z,97141.13
2023-06-15T16:44:09.849Z,97143.22
2023-06-15T16:46:12.538Z,97151.53
2023-06-15T16:48:16.557Z,97149.19
2023-06-15T16:50:19.495Z,97149.44
2023-06-15T16:52:23.205Z,97148.78
2023-06-15T16:54:25.800Z,97146.66
2023-06-15T16:56:28.446Z,97153.88
2023-06-15T16:58:31.433Z,97154.06
2023-06-15T17:00:34.300Z,97152.72
2023-06-15T17:02:36.963Z,97146.69
2023-06-15T17:04:41.401Z,97152.59
2023-06-15T17:06:44.128Z,97156.94
2023-06-15T17:08:46.728Z,97151.41
2023-06-15T17:10:49.351Z,97155.81
2023-06-15T17:12:52.040Z,97150.91
2023-06-15T17:14:54.618Z,97151.19
2023-06-15T17:16:57.238Z,97157.22
2023-06-15T17:18:59.840Z,97157.25
2023-06-15T17:21:03.908Z,97150.78
2023-06-15T17:23:07.517Z,97145.72
2023-06-15T17:25:11.175Z,97153.97
2023-06-15T17:27:14.809Z,97154.09
2023-06-15T17:29:17.731Z,97161.41
2023-06-15T17:31:20.365Z,97158.06
2023-06-15T17:33:23.007Z,97168.69
2023-06-15T17:35:25.868Z,97164.84
2023-06-15T17:37:29.849Z,97164.84
2023-06-15T17:39:32.506Z,97161.63
2023-06-15T17:41:35.197Z,97166.44
2023-06-15T17:43:39.034Z,97166.38
2023-06-15T17:45:41.718Z,97162.75
2023-06-15T17:47:44.639Z,97162.75
2023-06-15T17:49:50.120Z,97161.25
2023-06-15T17:51:52.867Z,97163.28
2023-06-15T17:53:56.910Z,97162.63
2023-06-15T17:56:02.267Z,97164.00
2023-06-15T17:58:04.887Z,97162.66
2023-06-15T18:00:08.920Z,97172.06
2023-06-15T18:02:11.800Z,97161.22
2023-06-15T18:04:14.599Z,97163.91
2023-06-15T18:06:17.497Z,97166.75
2023-06-15T18:08:20.483Z,97166.78
2023-06-15T18:10:24.488Z,97166.94
2023-06-15T18:12:30.134Z,97167.84
2023-06-15T18:14:32.804Z,97164.34
2023-06-15T18:16:35.464Z,97170.88
2023-06-15T18:18:38.108Z,97171.09
2023-06-15T18:20:41.129Z,97176.25
2023-06-15T18:22:43.763Z,97176.63
2023-06-15T18:24:46.463Z,97175.78
2023-06-15T18:26:50.526Z,97171.44
2023-06-15T18:28:53.783Z,97172.63
2023-06-15T18:30:56.382Z,97171.78
2023-06-15T18:33:01.037Z,97168.56
2023-06-15T18:35:05.082Z,97177.56
2023-06-15T18:37:07.815Z,97171.38
2023-06-15T18:39:11.543Z,97174.03
2023-06-15T18:41:14.225Z,97170.16
2023-06-15T18:43:18.437Z,97177.16
2023-06-15T18:45:21.636Z,97176.13
2023-06-15T18:47:26.205Z,97176.13
2023-06-15T18:49:28.905Z,97172.53
2023-06-15T18:51:31.559Z,97181.88
2023-06-15T18:53:34.175Z,97186.00
2023-06-15T18:55:37.472Z,97182.00
2023-06-15T18:57:40.187Z,97184.63
2023-06-15T18:59:44.169Z,97184.75
2023-06-15T19:01:46.816Z,97190.19
2023-06-15T19:03:49.499Z,97191.81
2023-06-15T19:05:52.151Z,97184.44
2023-06-15T19:07:54.820Z,97186.75
2023-06-15T19:09:58.733Z,97196.34
2023-06-15T19:12:01.424Z,97184.06
2023-06-15T19:14:04.126Z,97187.81
2023-06-15T19:16:08.723Z,97195.78
2023-06-15T19:18:11.985Z,97192.50
2023-06-15T19:20:15.007Z,97191.72
2023-06-15T19:22:17.643Z,97191.81
2023-06-15T19:24:23.910Z,97200.00
2023-06-15T19:26:29.656Z,97198.25
2023-06-15T19:28:32.277Z,97204.47
2023-06-15T19:30:37.718Z,97204.69
2023-06-15T19:32:42.098Z,97195.59
2023-06-15T19:34:45.028Z,97208.69
2023-06-15T19:36:52.207Z,97204.22
2023-06-15T19:39:02.559Z,97209.47
2023-06-15T19:41:06.068Z,97210.44
2023-06-15T19:43:09.003Z,97217.34
2023-06-15T19:45:12.259Z,97217.94
2023-06-15T19:47:14.943Z,97221.03
2023-06-15T19:49:19.262Z,97225.13
2023-06-15T19:51:21.847Z,97224.88
2023-06-15T19:53:24.796Z,97224.56
2023-06-15T19:55:27.491Z,97220.78
2023-06-15T19:57:30.160Z,97227.16
2023-06-15T19:59:32.734Z,97228.69
2023-06-15T20:01:35.390Z,97230.22
2023-06-15T20:03:38.210Z,97230.03
2023-06-15T20:05:42.301Z,97229.63
2023-06-15T20:07:45.019Z,97233.72
2023-06-15T20:09:47.845Z,97232.28
2023-06-15T20:11:51.633Z,97232.44
2023-06-15T20:13:54.350Z,97240.56
2023-06-15T20:15:57.048Z,97239.16
2023-06-15T20:17:59.960Z,97244.75
2023-06-15T20:20:02.614Z,97239.56
2023-06-15T20:22:08.555Z,97244.91
2023-06-15T20:24:11.293Z,97243.63
2023-06-15T20:26:17.150Z,97251.16
2023-06-15T20:28:20.211Z,97255.22
2023-06-15T20:30:23.124Z,97254.78
2023-06-15T20:32:27.802Z,97251.69
2023-06-15T20:34:33.258Z,97261.19
2023-06-15T20:36:41.354Z,97258.47
2023-06-15T20:38:45.582Z,97263.59
2023-06-15T20:40:48.333Z,97265.13
2023-06-15T20:42:50.983Z,97266.63
2023-06-15T20:44:55.151Z,97267.03
2023-06-15T20:46:57.883Z,97261.00
2023-06-15T20:49:00.705Z,97268.00
2023-06-15T20:51:06.041Z,97264.06
2023-06-15T20:53:08.731Z,97266.03
2023-06-15T20:55:14.180Z,97265.31
2023-06-15T20:57:16.782Z,97260.13
2023-06-15T20:59:19.534Z,97268.22
2023-06-15T21:01:22.508Z,97262.06
2023-06-15T21:03:25.617Z,97263.16
2023-06-15T21:05:28.894Z,97268.88
2023-06-15T21:07:31.581Z,97267.59
2023-06-15T21:09:34.193Z,97265.19
2023-06-15T21:11:38.215Z,97265.19
2023-06-15T21:13:40.987Z,97272.19
2023-06-15T21:15:43.656Z,97268.56
2023-06-15T21:17:46.827Z,97266.19
2023-06-15T21:19:51.541Z,97265.03
2023-06-15T21:21:54.720Z,97274.34
2023-06-15T21:23:57.520Z,97274.03
2023-06-15T21:26:00.596Z,97276.09
2023-06-15T21:28:06.664Z,97271.75
2023-06-15T21:30:10.030Z,97270.91
2023-06-15T21:32:12.710Z,97270.91
2023-06-15T21:34:15.393Z,97261.03
2023-06-15T21:36:18.018Z,97261.72
2023-06-15T21:38:22.016Z,97261.72
2023-06-15T21:40:24.897Z,97267.00
2023-06-15T21:42:27.593Z,97261.56
2023-06-15T21:44:31.584Z,97261.56
2023-06-15T21:46:34.356Z,97265.34
2023-06-15T21:48:37.053Z,97274.28
2023-06-15T21:50:39.672Z,97273.56
2023-06-15T21:52:47.298Z,97273.56
2023-06-15T21:54:49.982Z,97272.72
2023-06-15T21:56:52.712Z,97280.69
2023-06-15T21:58:55.399Z,97272.81
2023-06-15T22:00:59.375Z,97276.44
2023-06-15T22:03:02.058Z,97276.38
2023-06-15T22:05:05.024Z,97279.84
2023-06-15T22:07:08.144Z,97279.00
2023-06-15T22:09:11.138Z,97278.41
2023-06-15T22:11:13.780Z,97281.28
2023-06-15T22:13:18.839Z,97277.09
2023-06-15T22:15:21.601Z,97272.88
2023-06-15T22:19:30.132Z,97274.13
2023-06-15T22:21:32.775Z,97267.38
2023-06-15T22:23:35.491Z,97266.66
2023-06-15T22:25:51.081Z,97275.59
2023-06-15T22:27:58.434Z,97266.19
2023-06-15T22:30:01.678Z,97270.91
2023-06-15T22:32:10.411Z,97271.03
2023-06-15T22:34:14.618Z,97267.69
2023-06-15T22:36:17.278Z,97268.78
2023-06-15T22:38:20.130Z,97269.88
2023-06-15T22:40:22.762Z,97271.09
2023-06-15T22:42:25.369Z,97272.91
2023-06-15T22:44:27.992Z,97266.16
2023-06-15T22:46:30.646Z,97263.66
2023-06-15T22:48:38.361Z,97266.44
2023-06-15T22:50:42.471Z,97269.22
2023-06-15T22:52:45.124Z,97268.50
2023-06-15T22:54:50.349Z,97265.38
2023-06-15T22:56:53.509Z,97269.94
2023-06-15T22:58:56.419Z,97258.63
2023-06-15T23:00:59.175Z,97267.91
2023-06-15T23:03:01.916Z,97274.44
2023-06-15T23:05:07.370Z,97270.47
2023-06-15T23:07:13.034Z,97273.09
2023-06-15T23:09:15.630Z,97272.38
2023-06-15T23:11:18.945Z,97274.34
2023-06-15T23:13:22.649Z,97268.19
2023-06-15T23:15:25.826Z,97273.50
2023-06-15T23:17:30.337Z,97273.63
2023-06-15T23:19:33.356Z,97274.69
2023-06-15T23:21:40.457Z,97273.38
2023-06-15T23:23:46.254Z,97267.38
2023-06-15T23:25:49.140Z,97259.31
2023-06-15T23:27:55.397Z,97258.22
2023-06-15T23:29:59.910Z,97261.59
2023-06-15T23:32:02.564Z,97257.72
2023-06-15T23:34:05.198Z,97258.22
2023-06-15T23:36:09.393Z,97261.13
2023-06-15T23:38:12.257Z,97261.34
2023-06-15T23:40:16.650Z,97252.69
2023-06-15T23:42:19.519Z,97256.41
2023-06-15T23:44:22.208Z,97260.84
2023-06-15T23:46:25.169Z,97252.91
2023-06-15T23:48:27.811Z,97252.91
2023-06-15T23:50:30.498Z,97244.97
2023-06-15T23:52:33.126Z,97252.22
2023-06-15T23:54:36.314Z,97253.16
2023-06-15T23:56:40.411Z,97252.31
2023-06-15T23:58:43.077Z,97249.78
